sensor_id;sensor_type;location;lat;lon;timestamp;pressure;altitude;pressure_sealevel;temperature;humidity
33280;BME280;20403;43.114;12.434;2023-07-09T00:01:44;99565.78;;;19.46;100.00
33280;BME280;20403;43.114;12.434;2023-07-09T00:04:11;99562.88;;;19.42;100.00
33280;BME280;20403;43.114;12.434;2023-07-09T00:06:37;99560.78;;;19.39;100.00
33280;BME280;20403;43.114;12.434;2023-07-09T00:09:03;99560.78;;;19.39;100.00
33280;BME280;20403;43.114;12.434;2023-07-09T00:11:30;99559.69;;;19.40;100.00
33280;BME280;20403;43.114;12.434;2023-07-09T00:13:55;99562.59;;;19.49;100.00
33280;BME280;20403;43.114;12.434;2023-07-09T00:16:24;99557.28;;;19.54;100.00
33280;BME280;20403;43.114;12.434;2023-07-09T00:18:50;99557.28;;;19.54;100.00
33280;BME280;20403;43.114;12.434;2023-07-09T00:21:17;99559.41;;;19.57;100.00
33280;BME280;20403;43.114;12.434;2023-07-09T00:23:42;99564.69;;;19.62;100.00
33280;BME280;20403;43.114;12.434;2023-07-09T00:26:12;99565.75;;;19.56;100.00
33280;BME280;20403;43.114;12.434;2023-07-09T00:28:39;99565.25;;;19.49;100.00
33280;BME280;20403;43.114;12.434;2023-07-09T00:31:10;99570.28;;;19.40;100.00
33280;BME280;20403;43.114;12.434;2023-07-09T00:33:36;99568.97;;;19.38;100.00
33280;BME280;20403;43.114;12.434;2023-07-09T00:36:13;99570.56;;;19.39;100.00
33280;BME280;20403;43.114;12.434;2023-07-09T00:38:39;99568.44;;;19.36;100.00
33280;BME280;20403;43.114;12.434;2023-07-09T00:41:14;99570.81;;;19.42;100.00
33280;BME280;20403;43.114;12.434;2023-07-09T00:43:43;99572.09;;;19.50;100.00
33280;BME280;20403;43.114;12.434;2023-07-09T00:49:12;99570.81;;;19.37;100.00
33280;BME280;20403;43.114;12.434;2023-07-09T00:51:43;99572.69;;;19.26;100.00
33280;BME280;20403;43.114;12.434;2023-07-09T00:54:21;99569.81;;;19.23;100.00
33280;BME280;20403;43.114;12.434;2023-07-09T00:56:49;99563.69;;;19.22;100.00
33280;BME280;20403;43.114;12.434;2023-07-09T00:59:21;99568.50;;;19.20;100.00
33280;BME280;20403;43.114;12.434;2023-07-09T01:01:47;99569.25;;;19.26;100.00
33280;BME280;20403;43.114;12.434;2023-07-09T01:04:16;99574.03;;;19.24;100.00
33280;BME280;20403;43.114;12.434;2023-07-09T01:06:49;99570.84;;;19.22;100.00
33280;BME280;20403;43.114;12.434;2023-07-09T01:09:16;99569.28;;;19.16;100.00
33280;BME280;20403;43.114;12.434;2023-07-09T01:11:42;99577.50;;;19.09;100.00
33280;BME280;20403;43.114;12.434;2023-07-09T01:14:10;99576.69;;;18.98;100.00
33280;BME280;20403;43.114;12.434;2023-07-09T01:16:41;99581.19;;;18.98;100.00
33280;BME280;20403;43.114;12.434;2023-07-09T01:19:08;99580.13;;;18.99;100.00
33280;BME280;20403;43.114;12.434;2023-07-09T01:21:34;99581.72;;;19.00;100.00
33280;BME280;20403;43.114;12.434;2023-07-09T01:24:12;99574.56;;;19.00;100.00
33280;BME280;20403;43.114;12.434;2023-07-09T01:26:39;99576.44;;;19.05;100.00
33280;BME280;20403;43.114;12.434;2023-07-09T01:29:05;99586.22;;;19.04;100.00
33280;BME280;20403;43.114;12.434;2023-07-09T01:31:31;99576.66;;;19.08;100.00
33280;BME280;20403;43.114;12.434;2023-07-09T01:33:57;99578.28;;;19.09;100.00
33280;BME280;20403;43.114;12.434;2023-07-09T01:36:24;99578.53;;;19.08;100.00
33280;BME280;20403;43.114;12.434;2023-07-09T01:38:51;99581.44;;;19.12;100.00
33280;BME280;20403;43.114;12.434;2023-07-09T01:41:18;99579.06;;;19.10;100.00
33280;BME280;20403;43.114;12.434;2023-07-09T01:43:45;99584.09;;;18.96;100.00
33280;BME280;20403;43.114;12.434;2023-07-09T01:46:11;99581.47;;;18.86;100.00
33280;BME280;20403;43.114;12.434;2023-07-09T01:48:38;99588.06;;;18.83;100.00
33280;BME280;20403;43.114;12.434;2023-07-09T01:51:09;99591.50;;;18.84;100.00
33280;BME280;20403;43.114;12.434;2023-07-09T01:53:35;99585.44;;;18.83;100.00
33280;BME280;20403;43.114;12.434;2023-07-09T01:56:03;99582.50;;;18.80;100.00
33280;BME280;20403;43.114;12.434;2023-07-09T01:58:29;99586.69;;;18.76;100.00
33280;BME280;20403;43.114;12.434;2023-07-09T02:00:56;99588.81;;;18.68;100.00
33280;BME280;20403;43.114;12.434;2023-07-09T02:03:21;99588.56;;;18.65;100.00
33280;BME280;20403;43.114;12.434;2023-07-09T02:05:47;99590.13;;;18.66;100.00
33280;BME280;20403;43.114;12.434;2023-07-09T02:08:13;99592.50;;;18.67;100.00
33280;BME280;20403;43.114;12.434;2023-07-09T02:10:38;99586.69;;;18.71;100.00
33280;BME280;20403;43.114;12.434;2023-07-09T02:13:04;99595.41;;;18.66;100.00
33280;BME280;20403;43.114;12.434;2023-07-09T02:15:29;99598.84;;;18.66;100.00
33280;BME280;20403;43.114;12.434;2023-07-09T02:17:55;99602.00;;;18.63;100.00
33280;BME280;20403;43.114;12.434;2023-07-09T02:20:21;99600.94;;;18.64;100.00
33280;BME280;20403;43.114;12.434;2023-07-09T02:22:49;99588.81;;;18.63;100.00
33280;BME280;20403;43.114;12.434;2023-07-09T02:25:15;99599.38;;;18.63;100.00
33280;BME280;20403;43.114;12.434;2023-07-09T02:27:40;99604.13;;;18.61;100.00
33280;BME280;20403;43.114;12.434;2023-07-09T02:30:06;99610.72;;;18.59;100.00
33280;BME280;20403;43.114;12.434;2023-07-09T02:32:32;99605.44;;;18.54;100.00
33280;BME280;20403;43.114;12.434;2023-07-09T02:34:57;99603.03;;;18.57;100.00
33280;BME280;20403;43.114;12.434;2023-07-09T02:37:25;99604.66;;;18.58;100.00
33280;BME280;20403;43.114;12.434;2023-07-09T02:39:52;99607.00;;;18.55;100.00
33280;BME280;20403;43.114;12.434;2023-07-09T02:42:19;99614.69;;;18.56;100.00
33280;BME280;20403;43.114;12.434;2023-07-09T02:44:45;99616.25;;;18.52;100.00
33280;BME280;20403;43.114;12.434;2023-07-09T02:47:12;99611.75;;;18.53;100.00
33280;BME280;20403;43.114;12.434;2023-07-09T02:49:38;99617.84;;;18.53;100.00
33280;BME280;20403;43.114;12.434;2023-07-09T02:52:04;99616.78;;;18.59;100.00
33280;BME280;20403;43.114;12.434;2023-07-09T02:54:30;99615.72;;;18.55;100.00
33280;BME280;20403;43.114;12.434;2023-07-09T02:56:56;99612.28;;;18.55;100.00
33280;BME280;20403;43.114;12.434;2023-07-09T02:59:21;99612.03;;;18.51;100.00
33280;BME280;20403;43.114;12.434;2023-07-09T03:01:47;99602.50;;;18.55;100.00
33280;BME280;20403;43.114;12.434;2023-07-09T03:04:14;99605.44;;;18.54;100.00
33280;BME280;20403;43.114;12.434;2023-07-09T03:06:39;99604.13;;;18.51;100.00
33280;BME280;20403;43.114;12.434;2023-07-09T03:09:06;99613.06;;;18.45;100.00
33280;BME280;20403;43.114;12.434;2023-07-09T03:11:34;99618.34;;;18.40;100.00
33280;BME280;20403;43.114;12.434;2023-07-09T03:14:00;99627.03;;;18.35;100.00
33280;BME280;20403;43.114;12.434;2023-07-09T03:16:28;99624.41;;;18.45;100.00
33280;BME280;20403;43.114;12.434;2023-07-09T03:18:54;99634.44;;;18.38;100.00
33280;BME280;20403;43.114;12.434;2023-07-09T03:21:20;99633.66;;;18.48;100.00
33280;BME280;20403;43.114;12.434;2023-07-09T03:23:46;99631.06;;;18.58;100.00
33280;BME280;20403;43.114;12.434;2023-07-09T03:26:11;99632.38;;;18.56;100.00
33280;BME280;20403;43.114;12.434;2023-07-09T03:28:37;99633.16;;;18.56;100.00
33280;BME280;20403;43.114;12.434;2023-07-09T03:31:03;99630.00;;;18.54;100.00
33280;BME280;20403;43.114;12.434;2023-07-09T03:33:28;99632.63;;;18.44;100.00
33280;BME280;20403;43.114;12.434;2023-07-09T03:35:54;99627.22;;;18.18;100.00
33280;BME280;20403;43.114;12.434;2023-07-09T03:38:20;99633.31;;;18.19;100.00
33280;BME280;20403;43.114;12.434;2023-07-09T03:40:45;99636.75;;;18.24;100.00
33280;BME280;20403;43.114;12.434;2023-07-09T03:43:11;99631.53;;;18.35;100.00
33280;BME280;20403;43.114;12.434;2023-07-09T03:45:37;99634.69;;;18.37;100.00
33280;BME280;20403;43.114;12.434;2023-07-09T03:48:04;99631.53;;;18.35;100.00
33280;BME280;20403;43.114;12.434;2023-07-09T03:50:30;99639.97;;;18.37;100.00
33280;BME280;20403;43.114;12.434;2023-07-09T03:52:55;99639.72;;;18.43;100.00
33280;BME280;20403;43.114;12.434;2023-07-09T03:55:21;99638.94;;;18.48;100.00
33280;BME280;20403;43.114;12.434;2023-07-09T03:57:46;99657.97;;;18.55;100.00
33280;BME280;20403;43.114;12.434;2023-07-09T04:00:13;99650.59;;;18.57;100.00
33280;BME280;20403;43.114;12.434;2023-07-09T04:02:40;99644.00;;;18.60;100.00
33280;BME280;20403;43.114;12.434;2023-07-09T04:05:06;99642.94;;;18.56;100.00
33280;BME280;20403;43.114;12.434;2023-07-09T04:07:34;99651.13;;;18.54;100.00
33280;BME280;20403;43.114;12.434;2023-07-09T04:09:59;99653.50;;;18.61;100.00
33280;BME280;20403;43.114;12.434;2023-07-09T04:12:24;99646.13;;;18.68;100.00
33280;BME280;20403;43.114;12.434;2023-07-09T04:14:50;99649.31;;;18.70;100.00
33280;BME280;20403;43.114;12.434;2023-07-09T04:17:15;99644.81;;;18.65;100.00
33280;BME280;20403;43.114;12.434;2023-07-09T04:19:41;99653.78;;;18.59;100.00
33280;BME280;20403;43.114;12.434;2023-07-09T04:22:06;99654.06;;;18.68;100.00
33280;BME280;20403;43.114;12.434;2023-07-09T04:24:32;99647.47;;;18.76;100.00
33280;BME280;20403;43.114;12.434;2023-07-09T04:26:58;99645.91;;;18.85;100.00
33280;BME280;20403;43.114;12.434;2023-07-09T04:29:31;99644.63;;;18.93;100.00
33280;BME280;20403;43.114;12.434;2023-07-09T04:31:59;99639.84;;;18.95;100.00
33280;BME280;20403;43.114;12.434;2023-07-09T04:34:24;99647.78;;;18.95;100.00
33280;BME280;20403;43.114;12.434;2023-07-09T04:36:50;99648.59;;;18.95;100.00
33280;BME280;20403;43.114;12.434;2023-07-09T04:39:15;99649.63;;;18.99;100.00
33280;BME280;20403;43.114;12.434;2023-07-09T04:41:41;99643.28;;;19.10;100.00
33280;BME280;20403;43.114;12.434;2023-07-09T04:44:06;99638.03;;;19.16;100.00
33280;BME280;20403;43.114;12.434;2023-07-09T04:46:32;99636.94;;;19.27;100.00
33280;BME280;20403;43.114;12.434;2023-07-09T04:48:57;99628.75;;;19.34;100.00
33280;BME280;20403;43.114;12.434;2023-07-09T04:51:22;99644.09;;;19.42;100.00
33280;BME280;20403;43.114;12.434;2023-07-09T04:53:48;99640.38;;;19.53;100.00
33280;BME280;20403;43.114;12.434;2023-07-09T04:56:17;99635.31;;;19.57;100.00
33280;BME280;20403;43.114;12.434;2023-07-09T04:58:42;99645.91;;;19.72;100.00
33280;BME280;20403;43.114;12.434;2023-07-09T05:01:07;99641.38;;;19.83;100.00
33280;BME280;20403;43.114;12.434;2023-07-09T05:03:33;99636.84;;;19.93;100.00
33280;BME280;20403;43.114;12.434;2023-07-09T05:05:58;99637.91;;;19.92;100.00
33280;BME280;20403;43.114;12.434;2023-07-09T05:08:24;99631.53;;;19.99;100.00
33280;BME280;20403;43.114;12.434;2023-07-09T05:10:51;99626.22;;;20.09;100.00
33280;BME280;20403;43.114;12.434;2023-07-09T05:13:17;99637.28;;;20.16;100.00
33280;BME280;20403;43.114;12.434;2023-07-09T05:15:45;99632.47;;;20.28;100.00
33280;BME280;20403;43.114;12.434;2023-07-09T05:18:13;99638.78;;;20.43;100.00
33280;BME280;20403;43.114;12.434;2023-07-09T05:20:39;99641.09;;;20.49;100.00
33280;BME280;20403;43.114;12.434;2023-07-09T05:23:04;99633.69;;;20.56;100.00
33280;BME280;20403;43.114;12.434;2023-07-09T05:25:30;99634.16;;;20.64;100.00
33280;BME280;20403;43.114;12.434;2023-07-09T05:27:55;99636.47;;;20.75;100.00
33280;BME280;20403;43.114;12.434;2023-07-09T05:30:21;99636.13;;;20.87;100.00
33280;BME280;20403;43.114;12.434;2023-07-09T05:32:47;99640.34;;;20.93;100.00
33280;BME280;20403;43.114;12.434;2023-07-09T05:35:13;99650.28;;;21.07;100.00
33280;BME280;20403;43.114;12.434;2023-07-09T05:37:38;99641.22;;;21.13;100.00
33280;BME280;20403;43.114;12.434;2023-07-09T05:40:05;99645.09;;;21.26;100.00
33280;BME280;20403;43.114;12.434;2023-07-09T05:42:31;99640.47;;;21.42;100.00
33280;BME280;20403;43.114;12.434;2023-07-09T05:44:57;99635.13;;;21.47;100.00
33280;BME280;20403;43.114;12.434;2023-07-09T05:47:23;99639.03;;;21.54;100.00
33280;BME280;20403;43.114;12.434;2023-07-09T05:49:49;99639.44;;;21.67;100.00
33280;BME280;20403;43.114;12.434;2023-07-09T05:52:16;99641.13;;;21.81;100.00
33280;BME280;20403;43.114;12.434;2023-07-09T05:54:42;99644.50;;;21.87;100.00
33280;BME280;20403;43.114;12.434;2023-07-09T05:57:08;99642.53;;;21.98;100.00
33280;BME280;20403;43.114;12.434;2023-07-09T05:59:34;99647.44;;;22.10;100.00
33280;BME280;20403;43.114;12.434;2023-07-09T06:01:59;99645.44;;;22.20;100.00
33280;BME280;20403;43.114;12.434;2023-07-09T06:04:26;99642.97;;;22.29;100.00
33280;BME280;20403;43.114;12.434;2023-07-09T06:06:52;99648.94;;;22.40;100.00
33280;BME280;20403;43.114;12.434;2023-07-09T06:09:17;99653.13;;;22.46;100.00
33280;BME280;20403;43.114;12.434;2023-07-09T06:11:43;99655.91;;;22.55;100.00
33280;BME280;20403;43.114;12.434;2023-07-09T06:14:09;99647.50;;;22.66;100.00
33280;BME280;20403;43.114;12.434;2023-07-09T06:16:35;99643.63;;;22.78;100.00
33280;BME280;20403;43.114;12.434;2023-07-09T06:19:00;99647.44;;;22.91;100.00
33280;BME280;20403;43.114;12.434;2023-07-09T06:21:26;99645.91;;;23.03;100.00
33280;BME280;20403;43.114;12.434;2023-07-09T06:23:51;99645.25;;;23.12;100.00
33280;BME280;20403;43.114;12.434;2023-07-09T06:26:16;99644.56;;;23.20;100.00
33280;BME280;20403;43.114;12.434;2023-07-09T06:28:42;99653.28;;;23.25;100.00
33280;BME280;20403;43.114;12.434;2023-07-09T06:31:07;99648.59;;;23.36;100.00
33280;BME280;20403;43.114;12.434;2023-07-09T06:33:33;99638.75;;;23.51;100.00
33280;BME280;20403;43.114;12.434;2023-07-09T06:36:00;99636.09;;;23.64;100.00
33280;BME280;20403;43.114;12.434;2023-07-09T06:38:27;99634.75;;;23.81;100.00
33280;BME280;20403;43.114;12.434;2023-07-09T06:40:53;99638.00;;;23.92;100.00
33280;BME280;20403;43.114;12.434;2023-07-09T06:43:19;99640.06;;;23.95;100.00
33280;BME280;20403;43.114;12.434;2023-07-09T06:45:54;99645.50;;;24.03;100.00
33280;BME280;20403;43.114;12.434;2023-07-09T06:48:20;99645.47;;;24.17;100.00
33280;BME280;20403;43.114;12.434;2023-07-09T06:50:46;99644.16;;;24.28;100.00
33280;BME280;20403;43.114;12.434;2023-07-09T06:53:12;99639.41;;;24.39;100.00
33280;BME280;20403;43.114;12.434;2023-07-09T06:55:37;99638.13;;;24.50;100.00
33280;BME280;20403;43.114;12.434;2023-07-09T06:58:03;99639.63;;;24.65;100.00
33280;BME280;20403;43.114;12.434;2023-07-09T07:00:28;99635.34;;;24.78;100.00
33280;BME280;20403;43.114;12.434;2023-07-09T07:02:54;99631.66;;;24.88;100.00
33280;BME280;20403;43.114;12.434;2023-07-09T07:05:19;99635.91;;;24.89;100.00
33280;BME280;20403;43.114;12.434;2023-07-09T07:07:45;99638.09;;;25.09;100.00
33280;BME280;20403;43.114;12.434;2023-07-09T07:10:11;99634.91;;;25.30;100.00
33280;BME280;20403;43.114;12.434;2023-07-09T07:12:45;99634.03;;;25.43;100.00
33280;BME280;20403;43.114;12.434;2023-07-09T07:15:12;99633.56;;;25.41;100.00
33280;BME280;20403;43.114;12.434;2023-07-09T07:17:38;99637.72;;;25.56;100.00
33280;BME280;20403;43.114;12.434;2023-07-09T07:20:05;99640.78;;;25.72;100.00
33280;BME280;20403;43.114;12.434;2023-07-09T07:22:30;99632.63;;;25.86;100.00
33280;BME280;20403;43.114;12.434;2023-07-09T07:24:56;99631.59;;;25.95;100.00
33280;BME280;20403;43.114;12.434;2023-07-09T07:27:21;99628.47;;;26.11;100.00
33280;BME280;20403;43.114;12.434;2023-07-09T07:29:47;99629.25;;;26.11;100.00
33280;BME280;20403;43.114;12.434;2023-07-09T07:32:12;99629.25;;;26.20;100.00
33280;BME280;20403;43.114;12.434;2023-07-09T07:34:38;99630.69;;;26.35;100.00
33280;BME280;20403;43.114;12.434;2023-07-09T07:37:03;99631.50;;;26.53;100.00
33280;BME280;20403;43.114;12.434;2023-07-09T07:39:29;99626.81;;;26.76;100.00
33280;BME280;20403;43.114;12.434;2023-07-09T07:41:54;99632.75;;;26.99;100.00
33280;BME280;20403;43.114;12.434;2023-07-09T07:44:21;99626.56;;;27.16;100.00
33280;BME280;20403;43.114;12.434;2023-07-09T07:46:46;99616.44;;;27.39;100.00
33280;BME280;20403;43.114;12.434;2023-07-09T07:49:12;99619.09;;;27.48;100.00
33280;BME280;20403;43.114;12.434;2023-07-09T07:51:37;99621.22;;;27.63;100.00
33280;BME280;20403;43.114;12.434;2023-07-09T07:54:04;99616.00;;;27.66;100.00
33280;BME280;20403;43.114;12.434;2023-07-09T07:56:30;99617.97;;;27.78;100.00
33280;BME280;20403;43.114;12.434;2023-07-09T07:58:55;99609.13;;;27.86;100.00
33280;BME280;20403;43.114;12.434;2023-07-09T08:01:21;99608.09;;;28.00;100.00
33280;BME280;20403;43.114;12.434;2023-07-09T08:03:46;99609.94;;;28.08;100.00
33280;BME280;20403;43.114;12.434;2023-07-09T08:06:12;99609.25;;;28.20;100.00
33280;BME280;20403;43.114;12.434;2023-07-09T08:08:37;99602.69;;;28.29;100.00
33280;BME280;20403;43.114;12.434;2023-07-09T08:11:05;99603.53;;;28.42;100.00
33280;BME280;20403;43.114;12.434;2023-07-09T08:13:36;99606.53;;;28.62;100.00
33280;BME280;20403;43.114;12.434;2023-07-09T08:16:04;99605.47;;;28.75;100.00
33280;BME280;20403;43.114;12.434;2023-07-09T08:18:29;99599.28;;;28.96;100.00
33280;BME280;20403;43.114;12.434;2023-07-09T08:20:55;99607.50;;;29.11;100.00
33280;BME280;20403;43.114;12.434;2023-07-09T08:23:20;99600.56;;;29.10;100.00
33280;BME280;20403;43.114;12.434;2023-07-09T08:25:56;99596.63;;;29.08;100.00
33280;BME280;20403;43.114;12.434;2023-07-09T08:28:22;99594.63;;;29.29;100.00
33280;BME280;20403;43.114;12.434;2023-07-09T08:30:47;99595.31;;;29.39;100.00
33280;BME280;20403;43.114;12.434;2023-07-09T08:33:13;99600.47;;;29.56;100.00
33280;BME280;20403;43.114;12.434;2023-07-09T08:35:42;99598.47;;;29.65;100.00
33280;BME280;20403;43.114;12.434;2023-07-09T08:38:08;99602.97;;;29.86;100.00
33280;BME280;20403;43.114;12.434;2023-07-09T08:40:41;99594.38;;;30.08;100.00
33280;BME280;20403;43.114;12.434;2023-07-09T08:43:32;99596.03;;;30.25;100.00
33280;BME280;20403;43.114;12.434;2023-07-09T08:46:11;99591.91;;;30.28;100.00
33280;BME280;20403;43.114;12.434;2023-07-09T08:48:42;99590.09;;;30.32;100.00
33280;BME280;20403;43.114;12.434;2023-07-09T08:51:14;99593.06;;;30.43;100.00
33280;BME280;20403;43.114;12.434;2023-07-09T08:53:58;99587.66;;;30.55;100.00
33280;BME280;20403;43.114;12.434;2023-07-09T08:56:26;99591.34;;;30.78;100.00
33280;BME280;20403;43.114;12.434;2023-07-09T08:58:55;99592.88;;;30.92;100.00
33280;BME280;20403;43.114;12.434;2023-07-09T09:01:28;99596.50;;;30.99;100.00
33280;BME280;20403;43.114;12.434;2023-07-09T09:04:02;99590.25;;;31.11;100.00
33280;BME280;20403;43.114;12.434;2023-07-09T09:06:30;99586.44;;;31.12;98.75
33280;BME280;20403;43.114;12.434;2023-07-09T09:09:21;99597.63;;;31.30;100.00
33280;BME280;20403;43.114;12.434;2023-07-09T09:11:59;99597.94;;;31.41;100.00
33280;BME280;20403;43.114;12.434;2023-07-09T09:14:37;99584.91;;;31.43;94.13
33280;BME280;20403;43.114;12.434;2023-07-09T09:17:11;99594.09;;;31.42;75.55
33280;BME280;20403;43.114;12.434;2023-07-09T09:20:05;99585.31;;;31.45;88.24
33280;BME280;20403;43.114;12.434;2023-07-09T09:22:48;99600.69;;;31.45;97.22
33280;BME280;20403;43.114;12.434;2023-07-09T09:27:40;99597.09;;;31.72;94.92
33280;BME280;20403;43.114;12.434;2023-07-09T09:30:18;99606.72;;;31.89;77.43
33280;BME280;20403;43.114;12.434;2023-07-09T09:32:47;99592.81;;;31.87;89.39
33280;BME280;20403;43.114;12.434;2023-07-09T09:35:16;99598.34;;;31.94;76.28
33280;BME280;20403;43.114;12.434;2023-07-09T09:37:54;99598.81;;;31.96;69.71
33280;BME280;20403;43.114;12.434;2023-07-09T09:40:21;99602.22;;;32.13;97.53
33280;BME280;20403;43.114;12.434;2023-07-09T09:42:52;99597.31;;;32.18;66.38
33280;BME280;20403;43.114;12.434;2023-07-09T09:45:21;99595.53;;;32.45;89.96
33280;BME280;20403;43.114;12.434;2023-07-09T09:47:48;99603.09;;;32.36;65.45
33280;BME280;20403;43.114;12.434;2023-07-09T09:50:19;99598.41;;;32.33;87.04
33280;BME280;20403;43.114;12.434;2023-07-09T09:52:45;99608.22;;;32.61;81.84
33280;BME280;20403;43.114;12.434;2023-07-09T09:55:23;99607.72;;;32.98;80.67
33280;BME280;20403;43.114;12.434;2023-07-09T09:57:51;99601.31;;;33.06;73.31
33280;BME280;20403;43.114;12.434;2023-07-09T10:00:18;99603.94;;;33.25;74.16
33280;BME280;20403;43.114;12.434;2023-07-09T10:02:44;99603.94;;;33.25;67.31
33280;BME280;20403;43.114;12.434;2023-07-09T10:05:16;99603.91;;;33.48;66.11
33280;BME280;20403;43.114;12.434;2023-07-09T10:08:03;99608.78;;;33.62;60.28
33280;BME280;20403;43.114;12.434;2023-07-09T10:10:33;99605.38;;;33.42;58.69
33280;BME280;20403;43.114;12.434;2023-07-09T10:13:22;99602.16;;;33.60;65.70
33280;BME280;20403;43.114;12.434;2023-07-09T10:18:43;99602.06;;;33.79;62.35
33280;BME280;20403;43.114;12.434;2023-07-09T10:21:23;99600.97;;;33.84;64.63
33280;BME280;20403;43.114;12.434;2023-07-09T10:26:51;99600.25;;;33.60;60.72
33280;BME280;20403;43.114;12.434;2023-07-09T10:29:22;99599.97;;;33.69;55.13
33280;BME280;20403;43.114;12.434;2023-07-09T10:31:58;99594.63;;;33.73;55.33
33280;BME280;20403;43.114;12.434;2023-07-09T10:34:36;99600.47;;;33.78;66.59
33280;BME280;20403;43.114;12.434;2023-07-09T10:39:49;99605.75;;;33.67;54.41
33280;BME280;20403;43.114;12.434;2023-07-09T10:42:40;99605.63;;;33.87;61.58
33280;BME280;20403;43.114;12.434;2023-07-09T10:45:15;99604.44;;;34.11;60.24
33280;BME280;20403;43.114;12.434;2023-07-09T10:47:48;99597.44;;;34.10;53.44
33280;BME280;20403;43.114;12.434;2023-07-09T10:50:39;99595.97;;;34.16;56.57
33280;BME280;20403;43.114;12.434;2023-07-09T10:53:14;99599.97;;;34.26;51.15
33280;BME280;20403;43.114;12.434;2023-07-09T10:55:53;99594.25;;;34.35;49.05
33280;BME280;20403;43.114;12.434;2023-07-09T10:59:03;99583.44;;;34.72;52.45
33280;BME280;20403;43.114;12.434;2023-07-09T11:01:29;99588.50;;;34.73;50.81
33280;BME280;20403;43.114;12.434;2023-07-09T11:04:01;99582.69;;;34.71;46.42
33280;BME280;20403;43.114;12.434;2023-07-09T11:08:56;99576.25;;;34.90;45.68
33280;BME280;20403;43.114;12.434;2023-07-09T11:11:41;99579.75;;;34.91;47.30
33280;BME280;20403;43.114;12.434;2023-07-09T11:14:43;99574.31;;;34.87;48.07
33280;BME280;20403;43.114;12.434;2023-07-09T11:17:18;99583.38;;;35.06;47.33
33280;BME280;20403;43.114;12.434;2023-07-09T11:19:46;99576.22;;;34.87;49.84
33280;BME280;20403;43.114;12.434;2023-07-09T11:22:25;99571.09;;;34.75;47.28
33280;BME280;20403;43.114;12.434;2023-07-09T11:27:32;99572.78;;;34.90;47.29
33280;BME280;20403;43.114;12.434;2023-07-09T11:30:00;99573.31;;;35.10;56.01
33280;BME280;20403;43.114;12.434;2023-07-09T11:32:29;99570.88;;;34.94;49.38
33280;BME280;20403;43.114;12.434;2023-07-09T11:35:06;99558.31;;;34.75;48.69
33280;BME280;20403;43.114;12.434;2023-07-09T11:37:32;99562.81;;;35.05;53.60
33280;BME280;20403;43.114;12.434;2023-07-09T11:40:09;99558.94;;;35.54;52.55
33280;BME280;20403;43.114;12.434;2023-07-09T11:45:19;99552.88;;;35.79;54.73
33280;BME280;20403;43.114;12.434;2023-07-09T11:47:59;99555.63;;;35.93;50.32
33280;BME280;20403;43.114;12.434;2023-07-09T11:50:34;99561.19;;;36.14;49.14
33280;BME280;20403;43.114;12.434;2023-07-09T11:53:04;99558.09;;;36.23;49.49
33280;BME280;20403;43.114;12.434;2023-07-09T11:55:39;99555.72;;;36.11;51.04
33280;BME280;20403;43.114;12.434;2023-07-09T11:58:08;99566.22;;;36.23;53.31
33280;BME280;20403;43.114;12.434;2023-07-09T12:00:40;99558.84;;;36.20;50.19
33280;BME280;20403;43.114;12.434;2023-07-09T12:03:10;99564.56;;;35.93;48.82
33280;BME280;20403;43.114;12.434;2023-07-09T12:05:37;99568.72;;;35.66;53.28
33280;BME280;20403;43.114;12.434;2023-07-09T12:08:02;99555.50;;;35.64;48.16
33280;BME280;20403;43.114;12.434;2023-07-09T12:10:33;99565.47;;;35.46;48.40
33280;BME280;20403;43.114;12.434;2023-07-09T12:13:00;99564.66;;;35.42;56.28
33280;BME280;20403;43.114;12.434;2023-07-09T12:15:27;99561.88;;;35.31;50.95
33280;BME280;20403;43.114;12.434;2023-07-09T12:18:08;99557.63;;;35.33;49.63
33280;BME280;20403;43.114;12.434;2023-07-09T12:20:36;99562.00;;;35.52;52.66
33280;BME280;20403;43.114;12.434;2023-07-09T12:23:24;99553.66;;;35.83;54.58
33280;BME280;20403;43.114;12.434;2023-07-09T12:25:51;99547.22;;;36.12;54.69
33280;BME280;20403;43.114;12.434;2023-07-09T12:28:18;99548.81;;;36.31;50.82
33280;BME280;20403;43.114;12.434;2023-07-09T12:30:49;99553.09;;;36.43;48.98
33280;BME280;20403;43.114;12.434;2023-07-09T12:33:20;99551.50;;;36.17;50.26
33280;BME280;20403;43.114;12.434;2023-07-09T12:35:55;99537.50;;;36.15;51.61
33280;BME280;20403;43.114;12.434;2023-07-09T12:38:24;99542.59;;;36.31;50.10
33280;BME280;20403;43.114;12.434;2023-07-09T12:40:51;99542.66;;;36.59;49.21
33280;BME280;20403;43.114;12.434;2023-07-09T12:43:19;99539.13;;;36.48;46.39
33280;BME280;20403;43.114;12.434;2023-07-09T12:45:48;99542.56;;;36.16;51.26
33280;BME280;20403;43.114;12.434;2023-07-09T12:48:14;99542.47;;;35.95;51.72
33280;BME280;20403;43.114;12.434;2023-07-09T12:50:39;99546.19;;;35.62;48.92
33280;BME280;20403;43.114;12.434;2023-07-09T12:53:16;99540.25;;;35.42;46.52
33280;BME280;20403;43.114;12.434;2023-07-09T12:55:45;99540.97;;;35.31;50.36
33280;BME280;20403;43.114;12.434;2023-07-09T12:58:20;99542.94;;;35.38;50.98
33280;BME280;20403;43.114;12.434;2023-07-09T13:00:53;99541.84;;;35.50;48.44
33280;BME280;20403;43.114;12.434;2023-07-09T13:03:24;99539.56;;;35.59;49.80
33280;BME280;20403;43.114;12.434;2023-07-09T13:06:04;99524.50;;;35.65;48.97
33280;BME280;20403;43.114;12.434;2023-07-09T13:08:31;99528.00;;;35.69;49.07
33280;BME280;20403;43.114;12.434;2023-07-09T13:10:57;99526.88;;;35.70;53.38
33280;BME280;20403;43.114;12.434;2023-07-09T13:13:23;99517.19;;;35.73;53.10